Time;durP1;ratioP1;P1;durP2;ratioP2;P2;SDS_P1;SDS_P2;PMS_P1;PMS_P2;Temp;Humidity;BMP_temperature;BMP_pressure;BME280_temperature;BME280_humidity;BME280_pressure;Samples;Min_cycle;Max_cycle;Signal;HPM_P1;HPM_P2
2023/11/10 00:01:57;;;;;;;0.90;0.35;;;21.10;41.10;;;;;;5069898;28;20029;-54
2023/11/10 00:04:24;;;;;;;0.70;0.40;;;21.10;41.70;;;;;;5069118;28;20399;-59
2023/11/10 00:06:52;;;;;;;1.05;0.50;;;21.10;41.10;;;;;;5069063;28;20027;-59
2023/11/10 00:09:18;;;;;;;0.32;0.25;;;21.10;41.10;;;;;;5059817;28;20031;-58
2023/11/10 00:11:45;;;;;;;0.45;0.30;;;21.10;41.10;;;;;;5065582;28;20036;-58
2023/11/10 00:14:11;;;;;;;0.50;0.30;;;21.10;41.10;;;;;;5066609;28;20440;-59
2023/11/10 00:16:37;;;;;;;0.60;0.30;;;21.10;41.10;;;;;;5074905;28;20043;-56
2023/11/10 00:19:03;;;;;;;0.63;0.22;;;21.10;41.10;;;;;;5075593;28;20029;-59
2023/11/10 00:21:29;;;;;;;0.63;0.40;;;21.10;41.10;;;;;;5064163;28;20060;-58
2023/11/10 00:23:55;;;;;;;0.70;0.40;;;21.10;41.10;;;;;;5075638;28;20028;-57
2023/11/10 00:26:24;;;;;;;1.38;0.65;;;21.10;41.10;;;;;;5066168;28;20024;-56
2023/11/10 00:28:52;;;;;;;0.80;0.40;;;21.10;41.10;;;;;;5077022;28;20032;-57
2023/11/10 00:31:18;;;;;;;1.17;0.40;;;21.10;41.10;;;;;;5072803;28;20056;-58
2023/11/10 00:33:45;;;;;;;0.52;0.30;;;21.00;41.00;;;;;;5070103;28;20028;-55
2023/11/10 00:36:11;;;;;;;0.43;0.40;;;21.00;41.00;;;;;;5069569;28;20052;-58
2023/11/10 00:38:36;;;;;;;0.45;0.32;;;21.00;41.00;;;;;;5072484;28;20352;-59
2023/11/10 00:41:02;;;;;;;0.88;0.40;;;21.00;41.10;;;;;;5068597;28;20501;-58
2023/11/10 00:43:28;;;;;;;0.80;0.50;;;21.00;41.00;;;;;;5068721;28;20036;-59
2023/11/10 00:45:54;;;;;;;0.43;0.30;;;21.00;41.10;;;;;;5070340;28;20028;-58
2023/11/10 00:48:20;;;;;;;0.80;0.40;;;21.00;41.10;;;;;;5070039;28;20021;-57
2023/11/10 00:50:46;;;;;;;1.00;0.47;;;21.00;41.10;;;;;;5050970;28;20501;-56
2023/11/10 00:53:12;;;;;;;0.93;0.47;;;21.00;41.10;;;;;;5074253;28;20067;-56
2023/11/10 00:55:38;;;;;;;0.65;0.40;;;21.00;41.10;;;;;;5067472;28;20028;-58
2023/11/10 00:58:04;;;;;;;0.73;0.50;;;21.00;41.10;;;;;;5070566;28;20134;-58
2023/11/10 01:00:30;;;;;;;0.30;0.30;;;20.90;41.10;;;;;;5069873;28;20052;-58
2023/11/10 01:02:56;;;;;;;0.63;0.30;;;21.00;41.10;;;;;;5069341;28;20033;-56
2023/11/10 01:05:22;;;;;;;0.55;0.30;;;20.90;41.10;;;;;;5063880;28;20037;-59
2023/11/10 01:07:48;;;;;;;0.75;0.40;;;20.90;41.10;;;;;;5073560;28;20047;-59
2023/11/10 01:10:14;;;;;;;1.52;0.52;;;20.90;41.10;;;;;;5052263;28;20036;-56
2023/11/10 01:12:41;;;;;;;1.50;0.40;;;20.90;41.10;;;;;;5070221;28;20048;-54
2023/11/10 01:15:08;;;;;;;1.13;0.30;;;20.90;41.10;;;;;;5064820;28;20082;-58
2023/11/10 01:17:36;;;;;;;0.50;0.40;;;20.90;41.10;;;;;;5073367;28;20024;-56
2023/11/10 01:20:02;;;;;;;1.20;0.40;;;20.90;41.10;;;;;;5069246;28;20025;-57
2023/11/10 01:22:28;;;;;;;0.73;0.52;;;20.90;41.10;;;;;;5069239;28;20418;-58
2023/11/10 01:24:54;;;;;;;0.60;0.32;;;20.90;41.10;;;;;;5067131;28;20025;-59
2023/11/10 01:27:20;;;;;;;1.50;0.40;;;20.90;41.20;;;;;;5069369;28;20032;-58
2023/11/10 01:29:46;;;;;;;0.70;0.30;;;20.90;41.20;;;;;;5071178;28;20024;-56
2023/11/10 01:32:15;;;;;;;2.25;0.30;;;20.90;41.20;;;;;;5055056;28;20041;-58
2023/11/10 01:34:40;;;;;;;0.40;0.30;;;20.90;41.20;;;;;;5071873;28;20032;-56
2023/11/10 01:37:07;;;;;;;0.40;0.28;;;20.90;41.20;;;;;;5057392;28;20055;-54
2023/11/10 01:39:33;;;;;;;0.93;0.47;;;20.90;41.20;;;;;;5068709;28;20428;-57
2023/11/10 01:41:59;;;;;;;0.65;0.40;;;20.80;41.10;;;;;;5044971;28;20101;-59
2023/11/10 01:44:25;;;;;;;0.75;0.35;;;20.80;41.20;;;;;;5070374;28;20390;-55
2023/11/10 01:46:52;;;;;;;0.98;0.35;;;20.80;41.20;;;;;;5082786;28;20039;-55
2023/11/10 01:49:21;;;;;;;0.60;0.47;;;20.80;41.20;;;;;;5066807;28;20479;-58
2023/11/10 01:51:49;;;;;;;0.68;0.30;;;20.80;41.20;;;;;;5054521;28;20060;-58
2023/11/10 01:54:18;;;;;;;0.85;0.40;;;20.80;41.20;;;;;;5062422;28;20037;-57
2023/11/10 01:56:48;;;;;;;1.17;0.40;;;20.80;41.20;;;;;;5057856;28;20478;-57
2023/11/10 01:59:15;;;;;;;0.93;0.40;;;20.80;41.20;;;;;;5053739;28;20408;-55
2023/11/10 02:01:41;;;;;;;0.95;0.40;;;20.80;41.20;;;;;;5048527;28;20028;-60
2023/11/10 02:04:11;;;;;;;0.47;0.30;;;20.80;41.20;;;;;;5047860;28;20493;-56
2023/11/10 02:06:42;;;;;;;0.70;0.40;;;20.80;41.20;;;;;;5072324;28;20499;-56
2023/11/10 02:09:09;;;;;;;1.27;0.35;;;20.80;41.20;;;;;;5058090;28;20036;-58
2023/11/10 02:11:38;;;;;;;0.70;0.50;;;20.80;41.20;;;;;;5053434;28;20029;-57
2023/11/10 02:14:08;;;;;;;1.20;0.38;;;20.80;41.20;;;;;;5072130;28;20031;-54
2023/11/10 02:16:35;;;;;;;0.35;0.20;;;20.80;41.20;;;;;;5052967;28;20534;-60
2023/11/10 02:19:02;;;;;;;0.90;0.40;;;20.70;41.20;;;;;;5050762;28;20025;-56
2023/11/10 02:21:28;;;;;;;0.60;0.35;;;20.70;41.20;;;;;;5052104;28;20089;-58
2023/11/10 02:24:01;;;;;;;0.90;0.30;;;20.70;41.20;;;;;;5071729;28;20025;-58
2023/11/10 02:26:27;;;;;;;0.60;0.33;;;20.70;41.10;;;;;;5062127;28;20649;-58
2023/11/10 02:28:54;;;;;;;0.57;0.28;;;20.70;41.80;;;;;;5066518;28;20413;-58
2023/11/10 02:31:20;;;;;;;0.32;0.30;;;20.70;41.20;;;;;;5065540;28;20036;-57
2023/11/10 02:33:49;;;;;;;0.95;0.20;;;20.70;41.10;;;;;;5066522;28;20029;-59
2023/11/10 02:36:14;;;;;;;1.20;0.38;;;20.70;41.10;;;;;;5064677;28;20435;-57
2023/11/10 02:38:44;;;;;;;0.90;0.30;;;20.70;41.20;;;;;;5071046;28;20056;-55
2023/11/10 02:41:10;;;;;;;0.45;0.30;;;20.70;41.20;;;;;;5063970;28;20079;-55
2023/11/10 02:43:36;;;;;;;0.30;0.20;;;20.70;41.20;;;;;;5050026;28;20820;-55
2023/11/10 02:46:02;;;;;;;0.90;0.38;;;20.70;41.20;;;;;;5068707;28;20043;-56
2023/11/10 02:48:29;;;;;;;0.73;0.35;;;20.70;41.20;;;;;;5073869;28;20032;-56
2023/11/10 02:50:55;;;;;;;1.48;0.40;;;20.70;41.20;;;;;;5045857;28;20441;-56
2023/11/10 02:53:21;;;;;;;0.52;0.20;;;20.60;41.10;;;;;;5072289;28;20016;-56
2023/11/10 02:55:47;;;;;;;0.68;0.30;;;20.60;41.10;;;;;;5052258;28;20359;-56
2023/11/10 02:58:13;;;;;;;0.57;0.30;;;20.60;41.20;;;;;;5074342;28;20024;-57
2023/11/10 03:00:40;;;;;;;0.63;0.40;;;20.70;41.20;;;;;;5069836;28;20020;-58
2023/11/10 03:03:07;;;;;;;0.40;0.30;;;20.60;41.20;;;;;;5072231;28;20029;-57
2023/11/10 03:05:34;;;;;;;0.70;0.20;;;20.70;41.20;;;;;;5070689;28;20044;-57
2023/11/10 03:08:00;;;;;;;0.63;0.30;;;20.70;41.20;;;;;;5080274;28;20028;-53
2023/11/10 03:10:26;;;;;;;0.88;0.43;;;20.60;41.20;;;;;;5069157;28;20031;-56
2023/11/10 03:12:51;;;;;;;1.13;0.30;;;20.60;41.20;;;;;;5050918;28;20036;-59
2023/11/10 03:15:17;;;;;;;0.70;0.40;;;20.60;41.10;;;;;;5072207;28;20382;-57
2023/11/10 03:17:44;;;;;;;0.63;0.30;;;20.60;41.20;;;;;;5076795;28;20032;-57
2023/11/10 03:20:12;;;;;;;0.40;0.25;;;20.70;41.20;;;;;;5080380;28;20475;-58
2023/11/10 03:22:38;;;;;;;0.73;0.25;;;20.60;41.20;;;;;;5059789;28;20036;-56
2023/11/10 03:25:04;;;;;;;0.63;0.30;;;20.60;41.20;;;;;;5073216;28;20036;-56
2023/11/10 03:27:30;;;;;;;0.70;0.20;;;20.60;41.20;;;;;;5074282;28;20353;-56
2023/11/10 03:29:56;;;;;;;0.38;0.25;;;20.60;41.20;;;;;;5072185;28;20059;-56
2023/11/10 03:32:23;;;;;;;0.73;0.30;;;20.60;41.20;;;;;;5051081;28;20129;-54
2023/11/10 03:34:49;;;;;;;1.23;0.40;;;20.60;41.20;;;;;;5065191;28;20475;-54
2023/11/10 03:37:17;;;;;;;0.50;0.20;;;20.60;41.20;;;;;;5058002;28;20048;-55
2023/11/10 03:39:43;;;;;;;0.50;0.40;;;20.60;41.20;;;;;;5074804;28;20025;-57
2023/11/10 03:42:09;;;;;;;0.57;0.20;;;20.60;41.20;;;;;;5055497;28;20070;-56
2023/11/10 03:44:36;;;;;;;0.52;0.30;;;20.60;41.20;;;;;;5073889;28;20048;-55
2023/11/10 03:47:02;;;;;;;0.95;0.40;;;20.50;41.10;;;;;;5072144;28;20034;-52
2023/11/10 03:49:29;;;;;;;0.45;0.32;;;20.60;41.20;;;;;;5078090;28;20020;-59
2023/11/10 03:51:55;;;;;;;0.28;0.22;;;20.60;41.20;;;;;;5071999;28;20463;-59
2023/11/10 03:54:22;;;;;;;0.50;0.30;;;20.60;41.20;;;;;;5072759;28;20044;-57
2023/11/10 03:56:49;;;;;;;0.40;0.30;;;20.50;41.10;;;;;;5071821;28;20033;-57
2023/11/10 03:59:14;;;;;;;0.90;0.40;;;20.60;41.20;;;;;;5085701;28;20106;-58
2023/11/10 04:01:40;;;;;;;0.85;0.20;;;20.50;41.10;;;;;;5078670;28;20032;-56
2023/11/10 04:04:10;;;;;;;0.63;0.30;;;20.50;41.10;;;;;;5074076;28;20420;-58
2023/11/10 04:06:36;;;;;;;1.05;0.30;;;20.50;41.10;;;;;;5070766;28;20024;-57
2023/11/10 04:09:02;;;;;;;0.77;0.20;;;20.50;41.10;;;;;;5073073;28;21243;-56
2023/11/10 04:11:29;;;;;;;0.40;0.30;;;20.50;41.10;;;;;;5077919;28;20044;-57
2023/11/10 04:13:56;;;;;;;0.40;0.30;;;20.50;41.10;;;;;;5067500;28;20452;-52
2023/11/10 04:16:23;;;;;;;0.10;0.10;;;20.50;41.10;;;;;;5072862;28;20086;-58
2023/11/10 04:18:51;;;;;;;0.45;0.30;;;20.50;41.10;;;;;;5080493;28;20032;-57
2023/11/10 04:21:19;;;;;;;0.50;0.30;;;20.50;41.10;;;;;;5068656;28;20028;-55
2023/11/10 04:23:45;;;;;;;1.30;0.40;;;20.50;41.10;;;;;;5072442;28;20443;-58
2023/11/10 04:26:13;;;;;;;0.57;0.30;;;20.50;41.10;;;;;;5071181;28;20044;-55
2023/11/10 04:28:42;;;;;;;0.60;0.20;;;20.50;41.10;;;;;;5072875;28;20060;-58
2023/11/10 04:31:09;;;;;;;0.40;0.20;;;20.50;41.10;;;;;;5070434;28;20029;-58
2023/11/10 04:33:39;;;;;;;0.20;0.20;;;20.50;41.10;;;;;;5081375;28;20616;-58
2023/11/10 04:36:09;;;;;;;0.88;0.20;;;20.50;41.10;;;;;;5069547;28;20060;-55
2023/11/10 04:38:35;;;;;;;0.22;0.20;;;20.50;41.10;;;;;;5073000;28;20471;-56
2023/11/10 04:41:02;;;;;;;0.90;0.28;;;20.50;41.10;;;;;;5070844;28;20020;-54
2023/11/10 04:43:29;;;;;;;0.70;0.20;;;20.50;41.10;;;;;;5071866;28;20352;-59
2023/11/10 04:45:55;;;;;;;0.88;0.22;;;20.50;41.10;;;;;;5071702;28;20348;-56
2023/11/10 04:48:21;;;;;;;0.63;0.30;;;20.50;41.00;;;;;;5070521;28;20021;-57
2023/11/10 04:50:48;;;;;;;1.50;0.30;;;20.50;41.10;;;;;;5067806;28;20115;-58
2023/11/10 04:53:14;;;;;;;0.40;0.20;;;20.50;41.10;;;;;;5070702;28;20056;-57
2023/11/10 04:55:40;;;;;;;0.15;0.10;;;20.40;41.00;;;;;;5060988;28;20217;-55
2023/11/10 04:58:06;;;;;;;0.17;0.10;;;20.40;41.00;;;;;;5068796;28;20025;-57
2023/11/10 05:00:33;;;;;;;0.20;0.10;;;20.40;41.00;;;;;;5068412;28;20055;-57
2023/11/10 05:03:03;;;;;;;0.40;0.20;;;20.40;41.00;;;;;;5072577;28;20028;-56
2023/11/10 05:05:29;;;;;;;0.82;0.43;;;20.40;41.00;;;;;;5076918;28;20035;-57
2023/11/10 05:07:55;;;;;;;0.30;0.20;;;20.40;41.00;;;;;;5079838;28;20051;-59
2023/11/10 05:10:21;;;;;;;0.28;0.13;;;20.40;41.00;;;;;;5075754;28;20083;-57
2023/11/10 05:12:47;;;;;;;0.85;0.28;;;20.40;41.00;;;;;;5072005;28;20111;-57
2023/11/10 05:15:14;;;;;;;0.73;0.30;;;20.40;41.00;;;;;;5070587;28;20166;-57
2023/11/10 05:17:44;;;;;;;0.93;0.30;;;20.40;41.00;;;;;;5074761;28;20029;-58
2023/11/10 05:20:11;;;;;;;0.35;0.20;;;20.40;41.00;;;;;;5047088;28;20033;-57
2023/11/10 05:22:39;;;;;;;1.35;0.30;;;20.40;41.00;;;;;;5073900;28;20025;-57
2023/11/10 05:25:06;;;;;;;0.20;0.15;;;20.40;41.00;;;;;;5065014;28;20028;-58
2023/11/10 05:27:32;;;;;;;0.77;0.30;;;20.40;41.00;;;;;;5072128;28;20029;-56
2023/11/10 05:29:58;;;;;;;0.75;0.20;;;20.40;41.10;;;;;;5046522;28;20021;-59
2023/11/10 05:32:26;;;;;;;0.25;0.20;;;20.30;41.00;;;;;;5068848;28;20448;-57
2023/11/10 05:34:54;;;;;;;0.60;0.28;;;20.40;41.10;;;;;;5070883;28;20048;-57
2023/11/10 05:37:26;;;;;;;0.85;0.30;;;20.30;41.00;;;;;;5066875;28;20107;-57
2023/11/10 05:39:52;;;;;;;0.52;0.30;;;20.40;41.00;;;;;;5066777;28;20117;-55
2023/11/10 05:42:22;;;;;;;0.82;0.40;;;20.30;41.00;;;;;;5062595;28;20048;-56
2023/11/10 05:44:49;;;;;;;0.63;0.20;;;20.30;41.00;;;;;;5069455;28;20447;-55
2023/11/10 05:47:15;;;;;;;0.20;0.20;;;20.30;41.00;;;;;;5064620;28;20091;-54
2023/11/10 05:49:42;;;;;;;1.20;0.30;;;20.30;41.00;;;;;;5067057;28;20090;-57
2023/11/10 05:52:12;;;;;;;0.63;0.20;;;20.30;41.00;;;;;;5067771;28;20041;-57
2023/11/10 05:54:39;;;;;;;0.55;0.28;;;20.30;41.00;;;;;;5062005;28;20051;-58
2023/11/10 05:57:05;;;;;;;0.90;0.22;;;20.30;41.00;;;;;;5067084;28;20024;-57
2023/11/10 05:59:32;;;;;;;0.88;0.43;;;20.30;41.00;;;;;;5072794;28;20039;-57
2023/11/10 06:01:58;;;;;;;0.98;0.20;;;20.30;41.00;;;;;;5071044;28;20027;-57
2023/11/10 06:04:24;;;;;;;1.02;0.30;;;20.30;41.00;;;;;;5067184;28;20422;-54
2023/11/10 06:06:51;;;;;;;0.63;0.38;;;20.30;41.00;;;;;;5070628;28;20148;-56
2023/11/10 06:09:18;;;;;;;0.80;0.40;;;20.30;41.00;;;;;;5074279;28;20039;-56
2023/11/10 06:11:44;;;;;;;0.77;0.40;;;20.30;41.00;;;;;;5066511;28;20039;-55
2023/11/10 06:14:11;;;;;;;1.40;0.35;;;20.30;41.00;;;;;;5068642;28;20024;-55
2023/11/10 06:16:40;;;;;;;0.63;0.20;;;20.30;41.00;;;;;;5073208;28;20107;-53
2023/11/10 06:19:09;;;;;;;1.00;0.30;;;20.30;41.00;;;;;;5073244;28;20451;-55
2023/11/10 06:21:35;;;;;;;1.15;0.30;;;20.30;41.00;;;;;;5075237;28;20028;-57
2023/11/10 06:24:01;;;;;;;0.60;0.25;;;20.30;41.00;;;;;;5068635;28;20036;-59
2023/11/10 06:26:28;;;;;;;0.82;0.30;;;20.30;41.00;;;;;;5065432;28;20111;-53
2023/11/10 06:28:54;;;;;;;0.50;0.13;;;20.30;41.00;;;;;;5072528;28;20030;-55
2023/11/10 06:31:20;;;;;;;0.32;0.13;;;20.30;41.00;;;;;;5072536;28;20059;-57
2023/11/10 06:33:50;;;;;;;0.40;0.20;;;20.30;41.00;;;;;;5063519;28;20386;-56
2023/11/10 06:36:16;;;;;;;0.70;0.20;;;20.20;40.90;;;;;;5072483;28;20116;-54
2023/11/10 06:38:46;;;;;;;0.43;0.28;;;20.30;41.00;;;;;;5072173;28;20039;-58
2023/11/10 06:41:14;;;;;;;0.25;0.20;;;20.30;40.90;;;;;;5069776;28;20020;-57
2023/11/10 06:43:45;;;;;;;0.55;0.20;;;20.20;40.90;;;;;;5070381;28;20533;-55
2023/11/10 06:46:17;;;;;;;0.63;0.40;;;20.20;40.90;;;;;;5068976;28;20115;-55
2023/11/10 06:48:43;;;;;;;1.00;0.30;;;20.20;40.90;;;;;;5073371;28;20028;-57
2023/11/10 06:51:09;;;;;;;0.90;0.30;;;20.20;40.90;;;;;;5064997;28;20066;-59
2023/11/10 06:53:35;;;;;;;1.05;0.40;;;20.20;40.90;;;;;;5070085;28;20057;-54
2023/11/10 06:56:01;;;;;;;1.00;0.30;;;20.20;40.90;;;;;;5073084;28;20444;-56
2023/11/10 06:58:26;;;;;;;0.63;0.30;;;20.20;40.90;;;;;;5072102;28;20059;-57
2023/11/10 07:00:54;;;;;;;1.17;0.30;;;20.20;40.90;;;;;;5075924;28;20040;-57
2023/11/10 07:03:21;;;;;;;0.38;0.20;;;20.20;40.90;;;;;;5079024;28;20028;-54
2023/11/10 07:05:47;;;;;;;0.60;0.35;;;20.20;40.90;;;;;;5076893;28;20017;-57
2023/11/10 07:08:13;;;;;;;0.40;0.20;;;20.20;40.90;;;;;;5073547;28;20114;-55
2023/11/10 07:10:43;;;;;;;0.80;0.30;;;20.20;40.90;;;;;;5081490;28;21539;-58
2023/11/10 07:13:10;;;;;;;0.65;0.30;;;20.20;40.90;;;;;;5074050;28;20062;-56
2023/11/10 07:15:37;;;;;;;0.70;0.30;;;20.20;40.90;;;;;;5080659;28;20024;-55
2023/11/10 07:18:03;;;;;;;1.65;0.43;;;20.20;40.90;;;;;;5072402;28;20706;-59
2023/11/10 07:20:30;;;;;;;1.10;0.30;;;20.20;40.90;;;;;;5071480;28;20127;-56
2023/11/10 07:22:59;;;;;;;0.68;0.30;;;20.20;40.90;;;;;;5079636;28;20328;-58
2023/11/10 07:25:26;;;;;;;0.93;0.30;;;20.20;40.90;;;;;;5051103;28;20444;-55
2023/11/10 07:27:55;;;;;;;1.00;0.40;;;20.20;40.90;;;;;;5079203;28;20029;-55
2023/11/10 07:30:22;;;;;;;0.55;0.25;;;20.20;40.90;;;;;;5077858;28;20028;-56
2023/11/10 07:32:49;;;;;;;1.33;0.40;;;20.20;41.00;;;;;;5076353;28;20048;-55
2023/11/10 07:35:16;;;;;;;0.85;0.30;;;20.20;41.00;;;;;;5075242;28;20044;-54
2023/11/10 07:37:44;;;;;;;0.70;0.38;;;20.20;41.00;;;;;;5079482;28;20021;-58
2023/11/10 07:40:20;;;;;;;1.05;0.60;;;20.20;41.00;;;;;;5079496;28;20066;-58
2023/11/10 07:42:47;;;;;;;1.00;0.30;;;20.20;41.00;;;;;;5071442;28;20055;-58
2023/11/10 07:45:17;;;;;;;1.38;0.45;;;20.10;41.00;;;;;;5086654;28;20347;-56
2023/11/10 07:47:50;;;;;;;1.45;0.40;;;20.10;41.00;;;;;;5083900;28;20158;-56
2023/11/10 07:50:18;;;;;;;1.35;0.40;;;20.20;41.00;;;;;;5074101;28;20043;-58
2023/11/10 07:52:49;;;;;;;1.70;0.50;;;20.10;41.00;;;;;;5078124;28;20114;-58
2023/11/10 07:55:15;;;;;;;0.90;0.40;;;20.20;41.00;;;;;;5079582;28;20024;-54
2023/11/10 07:57:42;;;;;;;3.17;0.40;;;20.20;41.10;;;;;;5085844;28;20020;-56
2023/11/10 08:00:11;;;;;;;1.90;0.45;;;20.10;41.10;;;;;;5072443;28;20074;-56
2023/11/10 08:02:41;;;;;;;2.10;0.63;;;20.20;41.10;;;;;;5074033;28;20020;-57
2023/11/10 08:05:07;;;;;;;1.20;0.40;;;20.20;41.10;;;;;;5071486;28;20082;-57
2023/11/10 08:07:33;;;;;;;1.00;0.38;;;20.20;41.70;;;;;;5071065;28;20028;-56
2023/11/10 08:10:02;;;;;;;1.02;0.43;;;20.20;41.10;;;;;;5079486;28;20028;-60
2023/11/10 08:12:29;;;;;;;1.17;0.45;;;20.20;41.10;;;;;;5087514;28;20086;-56
2023/11/10 08:14:55;;;;;;;1.50;0.60;;;20.20;41.00;;;;;;5091993;28;20103;-55
2023/11/10 08:17:21;;;;;;;1.05;0.45;;;20.20;41.00;;;;;;5087815;28;20028;-58
2023/11/10 08:19:47;;;;;;;1.60;0.50;;;20.20;41.00;;;;;;5083839;28;20024;-58
2023/11/10 08:22:13;;;;;;;0.85;0.30;;;20.20;41.00;;;;;;5090353;28;20024;-56
2023/11/10 08:24:40;;;;;;;1.90;0.60;;;20.20;41.00;;;;;;5087664;28;20056;-56
2023/11/10 08:27:06;;;;;;;1.42;0.63;;;20.20;41.00;;;;;;5085329;28;20029;-57
2023/11/10 08:29:32;;;;;;;1.13;0.47;;;20.20;41.00;;;;;;5083529;28;20343;-56
2023/11/10 08:31:58;;;;;;;2.30;0.60;;;20.20;41.00;;;;;;5073610;28;20036;-59
2023/11/10 08:34:24;;;;;;;1.30;0.50;;;20.20;41.00;;;;;;5058445;28;20032;-56
2023/11/10 08:36:50;;;;;;;1.70;0.60;;;20.20;40.90;;;;;;5072028;28;20043;-58
2023/11/10 08:39:20;;;;;;;1.05;0.50;;;20.20;40.90;;;;;;5075800;28;20039;-59
2023/11/10 08:41:50;;;;;;;1.13;0.50;;;20.20;40.90;;;;;;5072701;28;20032;-56
2023/11/10 08:44:16;;;;;;;3.15;0.88;;;20.20;40.90;;;;;;5074227;28;20026;-56
2023/11/10 08:46:44;;;;;;;1.90;0.73;;;20.20;41.00;;;;;;5072920;28;20116;-57
2023/11/10 08:49:11;;;;;;;1.77;0.60;;;20.20;41.00;;;;;;5073100;28;20032;-58
2023/11/10 08:51:38;;;;;;;1.02;0.32;;;20.20;40.90;;;;;;5045305;28;20043;-55
2023/11/10 08:54:04;;;;;;;2.08;0.65;;;20.20;40.90;;;;;;5073099;28;20025;-59
2023/11/10 08:56:30;;;;;;;1.23;0.43;;;20.20;41.00;;;;;;5073068;28;20050;-57
2023/11/10 08:58:57;;;;;;;2.15;0.60;;;20.20;41.00;;;;;;5075632;28;20394;-57
2023/11/10 09:01:23;;;;;;;1.58;0.60;;;20.20;41.00;;;;;;5075995;28;20106;-58
2023/11/10 09:03:49;;;;;;;1.33;0.50;;;20.20;41.10;;;;;;5082188;28;20037;-56
2023/11/10 09:06:15;;;;;;;1.65;0.65;;;20.20;41.10;;;;;;5080920;28;20044;-57
2023/11/10 09:08:41;;;;;;;3.58;0.65;;;20.30;41.20;;;;;;5079150;28;20032;-55
2023/11/10 09:11:07;;;;;;;1.88;0.60;;;20.30;41.20;;;;;;5082248;28;20028;-56
2023/11/10 09:13:33;;;;;;;2.45;0.70;;;20.30;41.20;;;;;;5082421;28;20052;-57
2023/11/10 09:16:03;;;;;;;1.25;0.50;;;20.40;41.30;;;;;;5086454;28;20082;-58
2023/11/10 09:18:29;;;;;;;1.25;0.60;;;20.50;41.30;;;;;;5086946;28;20039;-54
2023/11/10 09:20:55;;;;;;;1.20;0.50;;;20.50;41.30;;;;;;5085709;28;20020;-55
2023/11/10 09:23:22;;;;;;;2.08;0.57;;;20.60;41.30;;;;;;5088966;28;20028;-56
2023/11/10 09:25:49;;;;;;;1.77;0.60;;;20.60;41.30;;;;;;5086523;28;20047;-58
2023/11/10 09:28:15;;;;;;;1.70;0.45;;;20.70;41.20;;;;;;5084363;28;20028;-57
2023/11/10 09:30:41;;;;;;;2.47;0.47;;;20.80;41.20;;;;;;5086199;28;20028;-58
2023/11/10 09:33:06;;;;;;;1.02;0.50;;;20.80;41.10;;;;;;5088502;28;20036;-57
2023/11/10 09:35:33;;;;;;;1.98;0.60;;;20.90;41.10;;;;;;5086178;28;20051;-56
2023/11/10 09:37:59;;;;;;;1.40;0.60;;;21.00;41.10;;;;;;5085112;28;20037;-55
2023/11/10 09:40:25;;;;;;;0.82;0.38;;;21.10;41.00;;;;;;5086342;28;20020;-59
2023/11/10 09:42:54;;;;;;;1.17;0.40;;;21.10;41.00;;;;;;5068488;28;20040;-56
2023/11/10 09:45:21;;;;;;;1.67;0.52;;;21.10;40.90;;;;;;5087127;28;20483;-54
2023/11/10 09:47:47;;;;;;;1.25;0.40;;;21.20;40.80;;;;;;5084722;28;20020;-56
2023/11/10 09:50:20;;;;;;;1.58;0.40;;;21.30;40.90;;;;;;5086513;28;20035;-56
2023/11/10 09:52:49;;;;;;;1.77;0.50;;;21.40;40.80;;;;;;5086944;28;20067;-58
2023/11/10 09:55:15;;;;;;;0.98;0.47;;;21.40;40.70;;;;;;5069044;28;20101;-57
2023/11/10 09:57:42;;;;;;;1.25;0.60;;;21.50;40.70;;;;;;5082716;28;20047;-58
2023/11/10 10:00:13;;;;;;;1.25;0.60;;;21.50;40.60;;;;;;5085492;28;20032;-54
2023/11/10 10:02:40;;;;;;;2.75;0.70;;;21.60;40.60;;;;;;5086711;28;20035;-57
2023/11/10 10:05:09;;;;;;;0.85;0.35;;;21.60;40.50;;;;;;5086526;28;20119;-56
2023/11/10 10:07:35;;;;;;;1.30;0.50;;;21.70;40.40;;;;;;5084035;28;20623;-55
2023/11/10 10:10:01;;;;;;;1.20;0.43;;;21.70;40.40;;;;;;5085276;28;20111;-57
2023/11/10 10:12:34;;;;;;;2.22;0.60;;;21.70;40.30;;;;;;5085539;28;20044;-62
2023/11/10 10:15:08;;;;;;;0.82;0.30;;;21.80;40.30;;;;;;5082613;28;20071;-54
2023/11/10 10:17:39;;;;;;;1.02;0.55;;;21.80;40.30;;;;;;5086097;28;20055;-54
2023/11/10 10:20:13;;;;;;;1.33;0.35;;;21.80;40.30;;;;;;5082106;28;20027;-56
2023/11/10 10:22:43;;;;;;;2.38;0.70;;;21.80;40.30;;;;;;5084400;28;20024;-58
2023/11/10 10:25:10;;;;;;;1.35;0.60;;;21.90;40.30;;;;;;5085004;28;20028;-54
2023/11/10 10:27:37;;;;;;;1.90;0.68;;;21.90;40.30;;;;;;5085270;28;20057;-57
2023/11/10 10:30:03;;;;;;;0.77;0.50;;;21.90;40.20;;;;;;5082921;28;20058;-57
2023/11/10 10:32:29;;;;;;;0.88;0.40;;;21.90;40.20;;;;;;5083265;28;20467;-58
2023/11/10 10:34:55;;;;;;;1.38;0.60;;;21.90;40.20;;;;;;5085329;28;20048;-58
2023/11/10 10:37:21;;;;;;;0.80;0.50;;;21.90;40.20;;;;;;5069531;28;20024;-58
2023/11/10 10:39:48;;;;;;;1.02;0.50;;;21.90;40.20;;;;;;5081320;28;20032;-58
2023/11/10 10:42:15;;;;;;;1.67;0.40;;;21.90;40.20;;;;;;5086575;28;20040;-56
2023/11/10 10:44:44;;;;;;;1.65;0.50;;;21.90;40.20;;;;;;5085621;28;20036;-55
2023/11/10 10:47:11;;;;;;;1.65;0.63;;;21.80;40.20;;;;;;5085992;28;20119;-57
2023/11/10 10:49:40;;;;;;;0.88;0.30;;;21.90;40.20;;;;;;5083271;28;20367;-55
2023/11/10 10:52:07;;;;;;;1.48;0.47;;;21.80;40.20;;;;;;5083562;28;20052;-57
2023/11/10 10:54:36;;;;;;;0.52;0.43;;;21.80;40.20;;;;;;5084157;28;20035;-58
2023/11/10 10:57:05;;;;;;;1.20;0.75;;;21.80;40.20;;;;;;5081740;28;20037;-59
2023/11/10 10:59:36;;;;;;;0.73;0.60;;;21.90;40.20;;;;;;5086014;28;20058;-59
2023/11/10 11:02:04;;;;;;;0.98;0.50;;;21.80;40.20;;;;;;5083811;28;20024;-58
2023/11/10 11:04:51;;;;;;;1.00;0.40;;;21.90;40.30;;;;;;5081850;28;20359;-55
2023/11/10 11:07:54;;;;;;;1.05;0.50;;;21.80;40.20;;;;;;5084531;28;20166;-56
2023/11/10 11:10:41;;;;;;;1.05;0.35;;;21.90;40.30;;;;;;5083572;28;20111;-58
2023/11/10 11:13:14;;;;;;;1.67;0.80;;;21.80;40.30;;;;;;5082572;28;20113;-57
2023/11/10 11:16:03;;;;;;;1.10;0.40;;;21.80;40.40;;;;;;5085727;28;20086;-58
2023/11/10 11:19:04;;;;;;;1.85;0.57;;;21.80;40.40;;;;;;5058864;28;20049;-54
2023/11/10 11:21:31;;;;;;;1.27;0.43;;;21.80;40.40;;;;;;5086842;28;20028;-55
2023/11/10 11:24:06;;;;;;;3.38;0.52;;;21.70;40.40;;;;;;5089231;28;20699;-57
2023/11/10 11:26:36;;;;;;;1.67;0.52;;;21.70;40.50;;;;;;5066984;28;20028;-55
2023/11/10 11:29:07;;;;;;;1.30;0.60;;;21.70;40.50;;;;;;5088989;28;20321;-58
2023/11/10 11:32:03;;;;;;;1.10;0.40;;;21.70;40.50;;;;;;5084518;28;20032;-57
2023/11/10 11:34:30;;;;;;;2.50;0.57;;;21.70;40.50;;;;;;5076155;28;20036;-55
2023/11/10 11:36:58;;;;;;;1.58;0.40;;;21.70;40.60;;;;;;5057219;28;20033;-55
2023/11/10 11:39:26;;;;;;;2.30;0.57;;;21.70;40.60;;;;;;5078568;28;20067;-55
2023/11/10 11:41:56;;;;;;;1.10;0.50;;;21.70;40.70;;;;;;5077554;28;20032;-56
2023/11/10 11:44:38;;;;;;;1.08;0.40;;;21.70;40.70;;;;;;5077192;28;20020;-59
2023/11/10 11:47:07;;;;;;;1.40;0.50;;;21.70;40.70;;;;;;5077628;28;20033;-60
2023/11/10 11:49:34;;;;;;;1.35;0.50;;;21.60;40.70;;;;;;5078083;28;20039;-59
2023/11/10 11:52:06;;;;;;;0.85;0.40;;;21.60;40.70;;;;;;5078827;28;20037;-55
2023/11/10 11:54:32;;;;;;;1.23;0.35;;;21.60;40.70;;;;;;5087240;28;20703;-56
2023/11/10 11:56:58;;;;;;;1.05;0.50;;;21.60;40.80;;;;;;5082918;28;20016;-62
2023/11/10 11:59:25;;;;;;;1.48;0.57;;;21.60;40.80;;;;;;5085229;28;20028;-56
2023/11/10 12:01:52;;;;;;;0.88;0.50;;;21.60;40.90;;;;;;5087346;28;20081;-52
2023/11/10 12:04:18;;;;;;;1.80;0.68;;;21.60;41.00;;;;;;5088574;28;20032;-57
2023/11/10 12:06:44;;;;;;;1.40;0.50;;;21.60;41.00;;;;;;5084932;28;20024;-54
2023/11/10 12:09:12;;;;;;;1.20;0.40;;;21.60;41.10;;;;;;5083997;28;20040;-58
2023/11/10 12:12:29;;;;;;;1.30;0.55;;;21.60;41.10;;;;;;5294454;22;20903;-59
2023/11/10 12:14:55;;;;;;;1.88;0.50;;;21.60;41.10;;;;;;4993840;28;20368;-56
2023/11/10 12:17:23;;;;;;;1.23;0.30;;;21.50;41.20;;;;;;5005830;28;20080;-59
2023/11/10 12:19:49;;;;;;;1.55;0.35;;;21.60;41.30;;;;;;5016247;28;20030;-59
2023/11/10 12:22:16;;;;;;;1.25;0.40;;;21.50;41.30;;;;;;5003098;28;20040;-59
2023/11/10 12:24:43;;;;;;;0.90;0.40;;;21.50;41.30;;;;;;5003581;28;20034;-55
2023/11/10 12:27:09;;;;;;;1.13;0.38;;;21.50;41.30;;;;;;4998462;28;20511;-57
2023/11/10 12:29:35;;;;;;;1.10;0.60;;;21.50;41.40;;;;;;5004762;28;20029;-57
2023/11/10 12:32:02;;;;;;;1.38;0.43;;;21.50;41.40;;;;;;5017818;28;20030;-57
2023/11/10 12:34:28;;;;;;;1.80;0.60;;;21.50;41.50;;;;;;5006055;28;20021;-56
2023/11/10 12:36:57;;;;;;;0.80;0.50;;;21.50;41.50;;;;;;5003759;28;20815;-56
2023/11/10 12:39:23;;;;;;;1.55;0.57;;;21.60;41.50;;;;;;5001518;28;20085;-57
2023/11/10 12:41:51;;;;;;;0.65;0.40;;;21.60;41.40;;;;;;5003448;28;20029;-58
2023/11/10 12:44:19;;;;;;;1.50;0.30;;;21.60;41.40;;;;;;5005760;28;20468;-56
2023/11/10 12:47:06;;;;;;;1.23;0.50;;;21.60;41.40;;;;;;5004192;28;20045;-56
2023/11/10 12:49:33;;;;;;;0.77;0.40;;;21.60;42.00;;;;;;4999793;28;20420;-60
2023/11/10 12:52:02;;;;;;;1.30;0.50;;;21.60;41.30;;;;;;5005172;28;20046;-58